createdAt,value
2023-01-04T00:00:30.424Z,4.75
2023-01-04T00:04:39.565Z,4.59
2023-01-04T00:06:45.498Z,4.74
2023-01-04T00:08:54.698Z,4.81
2023-01-04T00:10:57.903Z,4.84
2023-01-04T00:13:02.474Z,4.86
2023-01-04T00:15:03.686Z,4.86
2023-01-04T00:17:06.919Z,4.88
2023-01-04T00:19:11.300Z,4.89
2023-01-04T00:21:13.709Z,4.92
2023-01-04T00:23:15.942Z,4.94
2023-01-04T00:25:21.522Z,4.94
2023-01-04T00:27:23.222Z,4.96
2023-01-04T00:29:24.712Z,4.97
2023-01-04T00:31:28.044Z,4.98
2023-01-04T00:33:31.485Z,4.99
2023-01-04T00:35:45.627Z,5.02
2023-01-04T00:37:55.467Z,5.02
2023-01-04T00:39:57.699Z,5.03
2023-01-04T00:42:01.630Z,5.03
2023-01-04T00:44:03.314Z,5.04
2023-01-04T00:46:06.884Z,5.06
2023-01-04T00:48:10.110Z,5.06
2023-01-04T00:50:12.297Z,5.06
2023-01-04T00:52:15.469Z,5.07
2023-01-04T00:54:18.666Z,5.08
2023-01-04T00:56:23.144Z,5.09
2023-01-04T00:58:54.890Z,5.10
2023-01-04T01:00:50.328Z,5.12
2023-01-04T01:02:54.131Z,5.12
2023-01-04T01:04:55.934Z,5.13
2023-01-04T01:06:59.375Z,5.13
2023-01-04T01:09:02.824Z,5.14
2023-01-04T01:11:05.056Z,5.14
2023-01-04T01:13:08.675Z,5.14
2023-01-04T01:15:10.879Z,5.16
2023-01-04T01:17:14.483Z,5.16
2023-01-04T01:19:18.735Z,5.16
2023-01-04T01:21:19.984Z,5.17
2023-01-04T01:23:24.694Z,5.17
2023-01-04T01:25:30.085Z,5.18
2023-01-04T01:29:50.729Z,5.18
2023-01-04T01:31:54.436Z,5.18
2023-01-04T01:33:56.000Z,5.17
2023-01-04T01:36:01.141Z,5.17
2023-01-04T01:38:02.431Z,5.17
2023-01-04T01:40:04.614Z,5.17
2023-01-04T01:42:07.827Z,5.17
2023-01-04T01:44:13.830Z,5.17
2023-01-04T01:46:16.552Z,5.17
2023-01-04T01:48:23.931Z,5.18
2023-01-04T01:57:10.495Z,5.18
2023-01-04T01:59:13.282Z,5.17
2023-01-04T02:01:15.140Z,5.17
2023-01-04T02:03:18.524Z,5.16
2023-01-04T02:05:21.780Z,5.15
2023-01-04T02:07:23.247Z,5.15
2023-01-04T02:09:28.459Z,5.14
2023-01-04T02:11:29.891Z,5.14
2023-01-04T02:13:33.070Z,5.15
2023-01-04T02:15:36.264Z,5.14
2023-01-04T02:17:39.455Z,5.15
2023-01-04T02:19:41.770Z,5.15
2023-01-04T02:21:44.979Z,5.17
2023-01-04T02:23:48.217Z,5.17
2023-01-04T02:25:51.419Z,5.18
2023-01-04T02:27:53.650Z,5.19
2023-01-04T02:29:57.084Z,5.20
2023-01-04T02:32:02.952Z,5.22
2023-01-04T02:47:43.052Z,5.32
2023-01-04T02:58:52.861Z,5.39
2023-01-04T03:00:55.844Z,5.41
2023-01-04T03:02:59.478Z,5.43
2023-01-04T03:05:01.317Z,5.42
2023-01-04T03:07:04.789Z,5.44
2023-01-04T03:09:07.950Z,5.44
2023-01-04T03:11:10.094Z,5.46
2023-01-04T03:13:11.756Z,5.46
2023-01-04T03:15:16.743Z,5.47
2023-01-04T03:17:19.032Z,5.47
2023-01-04T03:19:22.345Z,5.48
2023-01-04T03:21:24.532Z,5.49
2023-01-04T03:23:28.752Z,5.49
2023-01-04T03:25:30.210Z,5.50
2023-01-04T03:27:33.400Z,5.50
2023-01-04T03:29:36.673Z,5.51
2023-01-04T03:31:38.422Z,5.52
2023-01-04T03:33:41.531Z,5.52
2023-01-04T03:35:44.721Z,5.53
2023-01-04T03:37:49.118Z,5.54
2023-01-04T03:39:50.825Z,5.54
2023-01-04T03:41:54.475Z,5.55
2023-01-04T03:46:19.678Z,5.55
2023-01-04T03:48:30.553Z,5.55
2023-01-04T03:52:51.103Z,5.55
2023-01-04T03:54:52.502Z,5.55
2023-01-04T03:56:55.925Z,5.56
2023-01-04T03:58:58.372Z,5.56
2023-01-04T04:01:01.841Z,5.56
2023-01-04T04:03:04.361Z,5.54
2023-01-04T04:05:09.768Z,5.56
2023-01-04T04:07:11.214Z,5.57
2023-01-04T04:09:13.406Z,5.57
2023-01-04T04:11:16.805Z,5.56
2023-01-04T04:13:19.040Z,5.58
2023-01-04T04:15:22.397Z,5.59
2023-01-04T04:17:25.833Z,5.59
2023-01-04T04:19:28.265Z,5.59
2023-01-04T04:21:31.433Z,5.60
2023-01-04T04:23:33.769Z,5.60
2023-01-04T04:25:37.035Z,5.60
2023-01-04T04:27:40.006Z,5.62
2023-01-04T04:29:43.186Z,5.63
2023-01-04T04:31:46.442Z,5.63
2023-01-04T04:33:48.961Z,5.64
2023-01-04T04:35:52.148Z,5.63
2023-01-04T04:37:55.340Z,5.65
2023-01-04T04:39:57.577Z,5.65
2023-01-04T04:42:01.825Z,5.65
2023-01-04T04:44:04.840Z,5.65
2023-01-04T04:46:07.843Z,5.65
2023-01-04T04:48:10.665Z,5.66
2023-01-04T04:50:12.338Z,5.66
2023-01-04T04:52:15.486Z,5.67
2023-01-04T04:54:18.739Z,5.67
2023-01-04T04:56:21.928Z,5.67
2023-01-04T04:58:24.387Z,5.65
2023-01-04T05:00:28.874Z,5.67
2023-01-04T05:02:30.282Z,5.67
2023-01-04T05:04:36.005Z,5.67
2023-01-04T05:06:37.250Z,5.66
2023-01-04T05:08:39.464Z,5.67
2023-01-04T05:10:44.848Z,5.66
2023-01-04T05:12:46.085Z,5.66
2023-01-04T05:14:49.532Z,5.68
2023-01-04T05:16:51.024Z,5.69
2023-01-04T05:18:54.607Z,5.68
2023-01-04T05:20:57.761Z,5.71
2023-01-04T05:23:00.169Z,5.70
2023-01-04T05:25:03.659Z,5.71
2023-01-04T05:27:06.006Z,5.72
2023-01-04T05:29:09.278Z,5.71
2023-01-04T05:31:12.705Z,5.73
2023-01-04T05:33:16.106Z,5.72
2023-01-04T05:35:21.627Z,5.73
2023-01-04T05:39:42.227Z,5.74
2023-01-04T05:41:45.307Z,5.73
2023-01-04T05:43:47.502Z,5.74
2023-01-04T05:45:51.194Z,5.74
2023-01-04T05:47:54.450Z,5.74
2023-01-04T05:49:56.888Z,5.74
2023-01-04T05:52:00.298Z,5.76
2023-01-04T05:54:03.468Z,5.77
2023-01-04T05:56:05.669Z,5.76
2023-01-04T05:58:08.972Z,5.76
2023-01-04T06:00:12.411Z,5.77
2023-01-04T06:02:14.635Z,5.78
2023-01-04T06:04:18.001Z,5.78
2023-01-04T06:06:20.156Z,5.79
2023-01-04T06:08:23.310Z,5.79
2023-01-04T06:10:26.494Z,5.81
2023-01-04T06:12:29.721Z,5.81
2023-01-04T06:14:32.914Z,5.82
2023-01-04T06:16:35.108Z,5.83
2023-01-04T06:18:38.409Z,5.82
2023-01-04T06:20:41.579Z,5.83
2023-01-04T06:22:44.737Z,5.84
2023-01-04T06:24:47.070Z,5.84
2023-01-04T06:26:50.485Z,5.85
2023-01-04T06:28:53.663Z,5.87
2023-01-04T06:30:56.797Z,5.88
2023-01-04T06:32:58.960Z,5.89
2023-01-04T06:35:02.600Z,5.91
2023-01-04T06:37:04.819Z,5.91
2023-01-04T06:39:08.265Z,5.90
2023-01-04T06:43:28.783Z,5.92
2023-01-04T07:08:07.910Z,5.98
2023-01-04T07:16:55.761Z,6.00
2023-01-04T07:18:58.941Z,5.98
2023-01-04T07:21:02.103Z,5.99
2023-01-04T07:23:04.410Z,5.98
2023-01-04T07:25:07.827Z,5.99
2023-01-04T07:27:09.934Z,5.98
2023-01-04T07:29:13.137Z,5.97
2023-01-04T07:31:14.626Z,5.99
2023-01-04T07:33:20.069Z,6.00
2023-01-04T07:35:21.769Z,5.99
2023-01-04T07:37:24.924Z,5.99
2023-01-04T07:39:26.293Z,5.99
2023-01-04T07:41:31.449Z,6.01
2023-01-04T07:43:33.749Z,6.02
2023-01-04T07:45:37.186Z,6.02
2023-01-04T07:47:40.673Z,6.01
2023-01-04T07:49:42.940Z,6.02
2023-01-04T07:51:46.108Z,6.02
2023-01-04T07:53:48.432Z,6.03
2023-01-04T07:55:51.865Z,6.03
2023-01-04T07:57:55.330Z,6.04
2023-01-04T07:59:57.551Z,6.05
2023-01-04T08:02:00.905Z,6.06
2023-01-04T08:04:04.218Z,6.06
2023-01-04T08:06:06.410Z,6.06
2023-01-04T08:08:09.605Z,6.07
2023-01-04T08:10:13.202Z,6.08
2023-01-04T08:12:15.655Z,6.08
2023-01-04T08:14:19.043Z,6.08
2023-01-04T08:16:21.294Z,6.08
2023-01-04T08:18:24.843Z,6.08
2023-01-04T08:20:27.272Z,6.09
2023-01-04T08:22:30.680Z,6.09
2023-01-04T08:24:34.118Z,6.10
2023-01-04T08:26:38.332Z,6.12
2023-01-04T08:28:40.434Z,6.12
2023-01-04T08:30:41.907Z,6.13
2023-01-04T08:32:45.133Z,6.14
2023-01-04T08:34:47.946Z,6.15
2023-01-04T08:36:51.154Z,6.17
2023-01-04T08:39:02.309Z,6.18
2023-01-04T08:43:18.845Z,6.23
2023-01-04T08:45:20.775Z,6.22
2023-01-04T08:47:24.162Z,6.25
2023-01-04T08:49:27.570Z,6.26
2023-01-04T08:51:29.797Z,6.27
2023-01-04T08:53:33.013Z,6.28
2023-01-04T08:55:36.467Z,6.28
2023-01-04T08:57:38.891Z,6.31
2023-01-04T08:59:42.297Z,6.32
2023-01-04T09:01:44.589Z,6.33
2023-01-04T09:03:48.064Z,6.36
2023-01-04T09:05:50.496Z,6.37
2023-01-04T09:07:53.764Z,6.39
2023-01-04T09:09:56.994Z,6.43
2023-01-04T09:12:00.151Z,6.42
2023-01-04T09:14:07.951Z,6.44
2023-01-04T09:22:55.588Z,6.54
2023-01-04T09:24:58.859Z,6.56
2023-01-04T09:27:02.148Z,6.60
2023-01-04T09:29:04.363Z,6.63
2023-01-04T09:31:07.567Z,6.63
2023-01-04T09:33:10.759Z,6.66
2023-01-04T09:35:12.943Z,6.69
2023-01-04T09:37:17.426Z,6.71
2023-01-04T09:39:23.177Z,6.73
2023-01-04T09:48:12.376Z,6.84
2023-01-04T09:50:15.583Z,6.85
2023-01-04T09:52:17.746Z,6.88
2023-01-04T09:54:20.931Z,6.90
2023-01-04T09:56:24.105Z,6.91
2023-01-04T09:58:27.491Z,6.93
2023-01-04T10:00:31.049Z,6.95
2023-01-04T10:02:32.956Z,6.97
2023-01-04T10:05:06.761Z,6.99
2023-01-04T10:09:22.783Z,7.02
2023-01-04T10:40:48.453Z,7.33
2023-01-04T10:45:09.414Z,7.38
2023-01-04T10:47:11.568Z,7.38
2023-01-04T10:49:16.089Z,7.42
2023-01-04T10:51:31.625Z,7.44
2023-01-04T10:58:21.272Z,7.52
2023-01-04T11:04:56.600Z,7.59
2023-01-04T11:07:00.185Z,7.61
2023-01-04T11:09:02.089Z,7.64
2023-01-04T11:11:05.331Z,7.67
2023-01-04T11:42:31.942Z,8.00
2023-01-04T11:44:36.607Z,8.01
2023-01-04T11:46:40.051Z,8.04
2023-01-04T11:55:28.743Z,8.11
2023-01-04T11:57:31.896Z,8.14
2023-01-04T11:59:37.295Z,8.15
2023-01-04T12:01:38.660Z,8.19
2023-01-04T12:03:41.904Z,8.21
2023-01-04T12:16:58.683Z,8.39
2023-01-04T12:19:00.900Z,8.43
2023-01-04T12:21:04.049Z,8.44
2023-01-04T12:23:06.225Z,8.46
2023-01-04T12:25:09.483Z,8.49
2023-01-04T12:27:12.702Z,8.53
2023-01-04T12:29:20.380Z,8.55
2023-01-04T12:33:45.045Z,8.60
2023-01-04T12:35:48.395Z,8.64
2023-01-04T12:37:50.686Z,8.66
2023-01-04T12:39:53.106Z,8.69
2023-01-04T12:42:01.138Z,8.71
2023-01-04T12:51:04.279Z,8.83
2023-01-04T12:53:29.283Z,8.85
2023-01-04T13:00:02.775Z,8.91
2023-01-04T13:02:04.157Z,8.94
2023-01-04T13:04:06.729Z,8.95
2023-01-04T13:06:09.047Z,8.98
2023-01-04T13:08:15.767Z,9.00
2023-01-04T13:17:06.205Z,9.11
2023-01-04T13:19:07.687Z,9.13
2023-01-04T13:21:10.870Z,9.14
2023-01-04T13:23:15.079Z,9.17
2023-01-04T13:26:19.652Z,9.19
2023-01-04T13:43:25.039Z,9.34
2023-01-04T13:47:49.660Z,9.38
2023-01-04T13:49:52.898Z,9.39
2023-01-04T13:52:11.583Z,9.41
2023-01-04T13:58:47.819Z,9.47
2023-01-04T14:00:51.250Z,9.49
2023-01-04T14:09:43.916Z,9.56
2023-01-04T14:18:34.472Z,9.64
2023-01-04T14:20:36.691Z,9.67
2023-01-04T14:22:40.000Z,9.68
2023-01-04T14:25:09.032Z,9.70
2023-01-04T14:33:50.132Z,9.76
2023-01-04T14:35:53.264Z,9.77
2023-01-04T14:37:56.429Z,9.78
2023-01-04T14:39:58.674Z,9.81
2023-01-04T14:42:02.863Z,9.82
2023-01-04T14:44:04.676Z,9.84
2023-01-04T14:46:07.968Z,9.85
2023-01-04T14:48:10.190Z,9.87
2023-01-04T14:50:13.384Z,9.89
2023-01-04T14:52:16.549Z,9.91
2023-01-04T14:54:24.256Z,9.92
2023-01-04T15:03:11.751Z,9.98
2023-01-04T15:05:15.018Z,9.99
2023-01-04T15:07:17.183Z,10.00
2023-01-04T15:09:20.370Z,10.02
2023-01-04T15:11:23.573Z,10.02
2023-01-04T15:13:34.907Z,10.04
2023-01-04T15:29:11.071Z,10.13
2023-01-04T15:31:13.323Z,10.15
2023-01-04T15:33:14.644Z,10.16
2023-01-04T15:35:17.911Z,10.18
2023-01-04T15:37:23.983Z,10.19
2023-01-04T15:46:14.689Z,10.23
2023-01-04T15:48:16.136Z,10.23
2023-01-04T15:50:19.573Z,10.23
2023-01-04T15:52:22.758Z,10.24
2023-01-04T15:54:24.888Z,10.23
2023-01-04T15:56:28.152Z,10.24
2023-01-04T15:58:31.389Z,10.27
2023-01-04T16:00:34.873Z,10.28
2023-01-04T16:02:37.261Z,10.27
2023-01-04T16:04:40.795Z,10.28
2023-01-04T16:06:43.013Z,10.28
2023-01-04T16:08:47.471Z,10.29
2023-01-04T16:10:48.744Z,10.30
2023-01-04T16:12:56.806Z,10.30
2023-01-04T16:17:20.058Z,10.32
2023-01-04T16:26:08.549Z,10.35
2023-01-04T16:28:11.755Z,10.36
2023-01-04T16:30:29.673Z,10.37
2023-01-04T16:37:05.424Z,10.40
2023-01-04T16:39:07.584Z,10.40
2023-01-04T16:41:10.744Z,10.40
2023-01-04T16:43:14.127Z,10.41
2023-01-04T16:45:16.284Z,10.41
2023-01-04T16:47:19.490Z,10.40
2023-01-04T16:49:22.695Z,10.41
2023-01-04T16:51:25.942Z,10.41
2023-01-04T16:53:28.144Z,10.40
2023-01-04T16:55:31.401Z,10.42
2023-01-04T16:57:34.684Z,10.42
2023-01-04T16:59:37.726Z,10.44
2023-01-04T17:01:48.805Z,10.44
2023-01-04T17:06:09.686Z,10.45
2023-01-04T17:08:11.835Z,10.44
2023-01-04T17:12:51.722Z,10.45
2023-01-04T17:17:23.671Z,10.49
2023-01-04T17:19:26.047Z,10.49
2023-01-04T17:21:34.192Z,10.51
2023-01-04T17:30:21.878Z,10.54
2023-01-04T17:32:25.028Z,10.55
2023-01-04T17:34:28.197Z,10.57
2023-01-04T17:36:31.360Z,10.57
2023-01-04T17:38:37.847Z,10.57
2023-01-04T17:47:26.633Z,10.63
2023-01-04T17:49:32.237Z,10.63
2023-01-04T17:51:34.005Z,10.66
2023-01-04T17:53:35.407Z,10.66
2023-01-04T17:55:38.606Z,10.68
2023-01-04T17:59:43.967Z,10.69
2023-01-04T18:01:47.201Z,10.69
2023-01-04T18:03:50.688Z,10.68
2023-01-04T18:06:07.081Z,10.70
2023-01-04T18:37:33.660Z,10.79
2023-01-04T19:02:07.876Z,10.89
2023-01-04T19:04:10.168Z,10.89
2023-01-04T19:06:13.321Z,10.90
2023-01-04T19:08:16.484Z,10.90
2023-01-04T19:10:18.800Z,10.91
2023-01-04T19:12:21.948Z,10.90
2023-01-04T19:14:25.167Z,10.93
2023-01-04T19:16:28.416Z,10.93
2023-01-04T19:18:31.697Z,10.93
2023-01-04T19:20:34.136Z,10.94
2023-01-04T19:22:37.311Z,10.95
2023-01-04T19:24:40.573Z,10.96
2023-01-04T19:26:43.982Z,10.97
2023-01-04T19:28:47.565Z,10.96
2023-01-04T19:30:54.865Z,10.96
2023-01-04T19:39:41.539Z,10.97
2023-01-04T19:41:44.774Z,10.98
2023-01-04T19:43:49.281Z,10.98
2023-01-04T19:45:50.800Z,10.99
2023-01-04T19:47:54.043Z,10.99
2023-01-04T19:49:56.252Z,10.97
2023-01-04T19:51:59.450Z,10.97
2023-01-04T19:54:03.813Z,10.97
2023-01-04T19:56:05.133Z,10.96
2023-01-04T19:58:08.343Z,10.92
2023-01-04T20:00:11.657Z,10.90
2023-01-04T20:02:16.059Z,10.87
2023-01-04T20:04:17.508Z,10.86
2023-01-04T20:06:20.940Z,10.83
2023-01-04T20:08:24.283Z,10.82
2023-01-04T20:10:25.974Z,10.80
2023-01-04T20:12:29.410Z,10.80
2023-01-04T20:16:54.127Z,10.78
2023-01-04T20:18:55.862Z,10.77
2023-01-04T20:25:27.711Z,10.74
2023-01-04T20:27:31.215Z,10.72
2023-01-04T20:29:34.511Z,10.73
2023-01-04T20:32:49.230Z,10.61
2023-01-04T20:37:04.991Z,10.82
2023-01-04T20:39:08.377Z,10.62
2023-01-04T20:41:52.084Z,10.66
2023-01-04T20:43:55.269Z,10.83
2023-01-04T20:48:13.931Z,10.62
2023-01-04T20:50:54.540Z,10.66
2023-01-04T20:53:29.578Z,10.70
2023-01-04T20:55:36.810Z,10.88
2023-01-04T20:57:38.665Z,10.91
2023-01-04T20:59:56.197Z,10.91
2023-01-04T21:02:21.947Z,10.89
2023-01-04T21:04:25.485Z,10.84
2023-01-04T21:06:31.577Z,10.81
2023-01-04T21:09:19.175Z,10.73
2023-01-04T21:20:25.158Z,10.73
2023-01-04T21:22:29.528Z,10.52
2023-01-04T21:24:32.187Z,10.62
2023-01-04T21:53:13.306Z,10.54
2023-01-04T22:13:01.273Z,10.56
2023-01-04T22:15:05.382Z,10.58
2023-01-04T22:17:06.983Z,10.55
2023-01-04T22:35:32.732Z,10.56
2023-01-04T22:37:36.908Z,10.71
2023-01-04T22:39:41.118Z,10.80
2023-01-04T22:41:44.581Z,10.81
2023-01-04T22:43:46.592Z,10.81
2023-01-04T22:45:48.256Z,10.77
2023-01-04T22:47:51.921Z,10.75
2023-01-04T22:49:55.159Z,10.74
2023-01-04T22:51:58.076Z,10.70
2023-01-04T22:54:01.533Z,10.67
2023-01-04T22:56:18.867Z,10.68
2023-01-04T22:58:22.735Z,10.66
2023-01-04T23:00:26.565Z,10.62
2023-01-04T23:02:31.989Z,10.62
2023-01-04T23:04:33.741Z,10.58
2023-01-04T23:06:37.563Z,10.58
2023-01-04T23:08:42.926Z,10.55
2023-01-04T23:10:44.624Z,10.53
2023-01-04T23:12:46.197Z,10.52
2023-01-04T23:14:47.817Z,10.51
2023-01-04T23:16:51.550Z,10.49
2023-01-04T23:18:53.400Z,10.49
2023-01-04T23:21:01.141Z,10.48
2023-01-04T23:23:02.715Z,10.46
2023-01-04T23:25:07.355Z,10.45
2023-01-04T23:27:08.872Z,10.44
2023-01-04T23:29:12.999Z,10.45
2023-01-04T23:31:17.718Z,10.43
2023-01-04T23:33:19.207Z,10.42
2023-01-04T23:35:21.068Z,10.42
2023-01-04T23:37:22.616Z,10.40
2023-01-04T23:39:24.294Z,10.39
2023-01-04T23:41:28.002Z,10.39
2023-01-04T23:43:29.680Z,10.38
2023-01-04T23:45:31.352Z,10.38
2023-01-04T23:47:32.883Z,10.38
2023-01-04T23:49:36.592Z,10.36
2023-01-04T23:51:38.236Z,10.35
2023-01-04T23:53:39.834Z,10.37
2023-01-04T23:55:41.395Z,10.35
2023-01-04T23:57:44.276Z,10.36
2023-01-04T23:59:45.784Z,10.35
